Terminal Aerodrome Forecast
Issued by NWS

Home | Current Version | Previous Version | Text Only | Print | Product List | Glossary On
Versions: 1 2 3 4 5 6 7 8 9 10 11 12
000
FTUS42 KTBW 041746
TAFPIE
TAF
KPIE 041746Z 0418/0518 14011KT P6SM SCT030 SCT250
     FM042100 16009KT P6SM BKN035
     FM050700 12005KT 4SM BR SCT010 BKN020
     FM051400 15008KT 6SM BR SCT020 BKN030
     FM051600 16009KT P6SM SCT020 BKN035=

USA.gov is the U.S. government's official web portal to all federal, state and local government web resources and services.